createdAt,value
2017-01-26T00:00:24.219Z,36.55
2017-01-26T00:01:24.185Z,36.65
2017-01-26T00:02:24.167Z,36.65
2017-01-26T00:03:24.158Z,36.65
2017-01-26T00:04:24.141Z,36.55
2017-01-26T00:05:24.122Z,36.55
2017-01-26T00:06:24.103Z,36.46
2017-01-26T00:07:24.085Z,36.46
2017-01-26T00:08:24.067Z,36.36
2017-01-26T00:09:24.051Z,36.27
2017-01-26T00:10:24.032Z,36.36
2017-01-26T00:11:24.006Z,36.27
2017-01-26T00:12:23.989Z,36.16
2017-01-26T00:13:23.976Z,36.07
2017-01-26T00:14:23.965Z,36.07
2017-01-26T00:15:23.937Z,36.25
2017-01-26T00:16:23.923Z,35.88
2017-01-26T00:17:23.905Z,35.78
2017-01-26T00:18:23.881Z,35.88
2017-01-26T00:19:23.867Z,35.88
2017-01-26T00:20:23.850Z,35.99
2017-01-26T00:21:23.835Z,35.8
2017-01-26T00:22:23.820Z,36.08
2017-01-26T00:23:23.803Z,35.89
2017-01-26T00:24:23.786Z,35.99
2017-01-26T00:25:23.763Z,35.99
2017-01-26T00:26:23.740Z,36.08
2017-01-26T00:27:23.729Z,36.18
2017-01-26T00:28:23.716Z,35.99
2017-01-26T00:29:23.684Z,35.89
2017-01-26T00:30:23.677Z,35.99
2017-01-26T00:31:23.656Z,35.61
2017-01-26T00:32:23.637Z,35.89
2017-01-26T00:33:23.622Z,35.99
2017-01-26T00:34:23.609Z,35.69
2017-01-26T00:35:23.592Z,35.78
2017-01-26T00:36:23.564Z,35.78
2017-01-26T00:37:23.556Z,35.59
2017-01-26T00:38:23.531Z,35.59
2017-01-26T00:39:23.519Z,35.61
2017-01-26T00:40:23.500Z,35.42
2017-01-26T00:41:23.478Z,35.61
2017-01-26T00:42:23.467Z,35.61
2017-01-26T00:43:23.447Z,35.52
2017-01-26T00:44:23.423Z,35.61
2017-01-26T00:45:23.408Z,35.61
2017-01-26T00:46:23.411Z,35.61
2017-01-26T00:47:23.375Z,35.42
2017-01-26T00:48:23.356Z,35.42
2017-01-26T00:49:23.336Z,35.52
2017-01-26T00:50:23.324Z,35.61
2017-01-26T00:51:23.307Z,35.23
2017-01-26T00:52:23.286Z,35.42
2017-01-26T00:53:23.266Z,35.42
2017-01-26T00:54:23.260Z,35.31
2017-01-26T00:55:23.234Z,35.31
2017-01-26T00:56:23.213Z,35.31
2017-01-26T00:57:23.198Z,35.21
2017-01-26T00:58:23.189Z,35.23
2017-01-26T00:59:23.162Z,35.33
2017-01-26T01:00:23.190Z,35.23
2017-01-26T01:01:23.130Z,35.33
2017-01-26T01:02:23.111Z,35.23
2017-01-26T01:03:23.103Z,35.14
2017-01-26T01:04:23.073Z,35.23
2017-01-26T01:05:23.063Z,35.14
2017-01-26T01:06:23.048Z,35.23
2017-01-26T01:07:23.028Z,35.42
2017-01-26T01:08:23.003Z,34.95
2017-01-26T01:09:22.988Z,35.04
2017-01-26T01:10:22.973Z,35.23
2017-01-26T01:11:22.957Z,35.23
2017-01-26T01:12:22.933Z,35.14
2017-01-26T01:13:22.925Z,34.95
2017-01-26T01:14:22.897Z,35.04
2017-01-26T01:15:22.879Z,35.23
2017-01-26T01:16:22.866Z,35.04
2017-01-26T01:17:22.853Z,35.04
2017-01-26T01:18:22.831Z,35.04
2017-01-26T01:19:22.812Z,34.95
2017-01-26T01:20:22.798Z,35.04
2017-01-26T01:21:22.779Z,35.04
2017-01-26T01:22:22.762Z,34.76
2017-01-26T01:23:22.745Z,34.85
2017-01-26T01:24:22.721Z,34.85
2017-01-26T01:25:22.708Z,34.85
2017-01-26T01:26:22.692Z,34.76
2017-01-26T01:27:22.671Z,34.85
2017-01-26T01:28:22.651Z,34.76
2017-01-26T01:29:22.641Z,34.38
2017-01-26T01:30:22.612Z,34.47
2017-01-26T01:31:22.604Z,34.57
2017-01-26T01:32:22.586Z,34.57
2017-01-26T01:33:22.563Z,34.57
2017-01-26T01:34:22.548Z,34.47
2017-01-26T01:35:22.529Z,34.47
2017-01-26T01:36:22.515Z,34.47
2017-01-26T01:37:22.497Z,34.47
2017-01-26T01:38:22.477Z,34.57
2017-01-26T01:39:22.453Z,34.57
2017-01-26T01:40:22.435Z,34.28
2017-01-26T01:41:22.422Z,34
2017-01-26T01:42:22.409Z,34.1
2017-01-26T01:43:22.381Z,34.1
2017-01-26T01:44:22.361Z,34.1
2017-01-26T01:45:22.351Z,34.19
2017-01-26T01:46:22.327Z,34.19
2017-01-26T01:47:22.311Z,34.28
2017-01-26T01:48:22.293Z,34.28
2017-01-26T01:49:22.280Z,34.19
2017-01-26T01:50:22.256Z,34.19
2017-01-26T01:51:22.241Z,34.47
2017-01-26T01:52:22.216Z,34.19
2017-01-26T01:53:22.208Z,34.38
2017-01-26T01:54:22.180Z,34.1
2017-01-26T01:55:22.167Z,34.1
2017-01-26T01:56:22.147Z,34
2017-01-26T01:57:22.155Z,34.19
2017-01-26T01:58:22.115Z,34
2017-01-26T01:59:22.102Z,34.1
2017-01-26T02:00:22.086Z,34.1
2017-01-26T02:01:22.060Z,34.1
2017-01-26T02:02:22.044Z,34.1
2017-01-26T02:03:22.053Z,34.1
2017-01-26T02:04:22.005Z,34
2017-01-26T02:05:21.983Z,33.62
2017-01-26T02:06:21.970Z,33.72
2017-01-26T02:07:21.946Z,33.72
2017-01-26T02:08:21.943Z,33.72
2017-01-26T02:09:21.916Z,34
2017-01-26T02:10:21.894Z,33.62
2017-01-26T02:11:21.880Z,33.81
2017-01-26T02:12:21.870Z,33.81
2017-01-26T02:13:21.843Z,33.8
2017-01-26T02:14:21.819Z,33.33
2017-01-26T02:15:21.805Z,33.42
2017-01-26T02:16:21.785Z,33.61
2017-01-26T02:17:21.772Z,33.51
2017-01-26T02:18:21.755Z,33.42
2017-01-26T02:19:21.736Z,33.51
2017-01-26T02:20:21.713Z,33.44
2017-01-26T02:21:21.692Z,33.61
2017-01-26T02:22:21.682Z,33.51
2017-01-26T02:23:21.665Z,33.61
2017-01-26T02:24:21.645Z,33.51
2017-01-26T02:25:21.624Z,33.61
2017-01-26T02:26:21.605Z,33.61
2017-01-26T02:27:21.585Z,33.51
2017-01-26T02:28:21.572Z,33.61
2017-01-26T02:29:21.549Z,33.51
2017-01-26T02:30:21.536Z,33.42
2017-01-26T02:31:21.515Z,33.61
2017-01-26T02:32:21.493Z,33.61
2017-01-26T02:33:21.487Z,33.61
2017-01-26T02:34:21.468Z,33.42
2017-01-26T02:35:21.450Z,33.42
2017-01-26T02:36:21.421Z,33.51
2017-01-26T02:37:21.409Z,33.42
2017-01-26T02:38:21.394Z,33.42
2017-01-26T02:39:21.372Z,33.42
2017-01-26T02:40:21.351Z,33.33
2017-01-26T02:41:21.330Z,33.34
2017-01-26T02:42:21.315Z,33.42
2017-01-26T02:43:21.301Z,33.61
2017-01-26T02:44:21.275Z,33.61
2017-01-26T02:45:21.259Z,33.51
2017-01-26T02:46:21.278Z,33.33
2017-01-26T02:47:21.227Z,33.61
2017-01-26T02:48:21.212Z,33.51
2017-01-26T02:49:21.193Z,33.23
2017-01-26T02:50:21.167Z,33.23
2017-01-26T02:51:21.151Z,33.14
2017-01-26T02:52:21.137Z,33.23
2017-01-26T02:53:21.121Z,33.23
2017-01-26T02:54:21.097Z,33.14
2017-01-26T02:55:21.077Z,33.23
2017-01-26T02:56:21.061Z,33.42
2017-01-26T02:57:21.038Z,33.42
2017-01-26T02:58:21.026Z,33.42
2017-01-26T02:59:21.005Z,33.23
2017-01-26T03:00:20.994Z,33.33
2017-01-26T03:01:20.976Z,33.23
2017-01-26T03:02:20.946Z,33.42
2017-01-26T03:03:20.929Z,33.51
2017-01-26T03:04:20.910Z,33.42
2017-01-26T03:05:20.896Z,33.33
2017-01-26T03:06:20.878Z,33.42
2017-01-26T03:07:20.857Z,33.42
2017-01-26T03:08:20.844Z,33.06
2017-01-26T03:09:20.830Z,33.23
2017-01-26T03:10:20.813Z,33.04
2017-01-26T03:11:20.795Z,33.04
2017-01-26T03:12:20.814Z,33.04
2017-01-26T03:13:20.766Z,32.95
2017-01-26T03:14:20.732Z,33.04
2017-01-26T03:15:20.721Z,33.04
2017-01-26T03:16:20.700Z,33.14
2017-01-26T03:17:20.677Z,32.95
2017-01-26T03:18:20.666Z,32.95
2017-01-26T03:19:20.651Z,33.14
2017-01-26T03:20:20.635Z,33.14
2017-01-26T03:21:20.606Z,33.14
2017-01-26T03:22:20.592Z,32.95
2017-01-26T03:23:20.572Z,32.95
2017-01-26T03:24:20.554Z,32.86
2017-01-26T03:25:20.540Z,32.76
2017-01-26T03:26:20.527Z,32.86
2017-01-26T03:27:20.506Z,32.86
2017-01-26T03:28:20.490Z,32.86
2017-01-26T03:29:20.467Z,32.86
2017-01-26T03:30:20.455Z,32.95
2017-01-26T03:31:20.432Z,32.95
2017-01-26T03:32:20.407Z,32.76
2017-01-26T03:33:20.399Z,32.76
2017-01-26T03:34:20.377Z,32.76
2017-01-26T03:35:20.365Z,32.67
2017-01-26T03:36:20.342Z,32.67
2017-01-26T03:37:20.324Z,32.76
2017-01-26T03:38:20.311Z,32.57
2017-01-26T03:39:20.291Z,32.86
2017-01-26T03:40:20.269Z,32.86
2017-01-26T03:41:20.247Z,32.57
2017-01-26T03:42:20.233Z,32.86
2017-01-26T03:43:20.210Z,32.67
2017-01-26T03:44:20.221Z,32.57
2017-01-26T03:45:20.182Z,32.76
2017-01-26T03:46:20.158Z,32.86
2017-01-26T03:47:20.141Z,32.76
2017-01-26T03:48:20.134Z,32.76
2017-01-26T03:49:20.118Z,32.76
2017-01-26T03:50:20.084Z,32.67
2017-01-26T03:51:20.074Z,32.67
2017-01-26T03:52:20.059Z,32.76
2017-01-26T03:53:20.041Z,32.76
2017-01-26T03:54:20.023Z,32.76
2017-01-26T03:55:20.395Z,32.76
2017-01-26T03:56:19.987Z,32.76
2017-01-26T03:57:19.960Z,32.86
2017-01-26T03:58:19.952Z,32.76
2017-01-26T03:59:19.925Z,32.76
2017-01-26T04:00:19.912Z,32.97
2017-01-26T04:01:19.892Z,32.67
2017-01-26T04:02:19.877Z,32.67
2017-01-26T04:03:19.858Z,32.67
2017-01-26T04:04:19.844Z,32.86
2017-01-26T04:05:19.821Z,32.67
2017-01-26T04:06:19.810Z,32.38
2017-01-26T04:07:19.812Z,32.29
2017-01-26T04:08:19.775Z,32.86
2017-01-26T04:09:19.754Z,32.87
2017-01-26T04:10:19.735Z,32.78
2017-01-26T04:11:19.710Z,32.68
2017-01-26T04:12:19.691Z,32.49
2017-01-26T04:13:19.682Z,32.3
2017-01-26T04:14:19.658Z,32.49
2017-01-26T04:15:19.648Z,32.4
2017-01-26T04:16:19.629Z,32.38
2017-01-26T04:17:19.608Z,32.4
2017-01-26T04:18:19.588Z,32.4
2017-01-26T04:19:19.570Z,32.4
2017-01-26T04:20:19.557Z,32.4
2017-01-26T04:21:19.532Z,32.68
2017-01-26T04:22:19.512Z,32.49
2017-01-26T04:23:19.502Z,32.49
2017-01-26T04:24:19.484Z,32.68
2017-01-26T04:25:19.466Z,32.59
2017-01-26T04:26:19.448Z,32.4
2017-01-26T04:27:19.429Z,32.4
2017-01-26T04:28:19.416Z,32.49
2017-01-26T04:29:19.392Z,32.68
2017-01-26T04:30:19.368Z,32.59
2017-01-26T04:31:19.358Z,32.3
2017-01-26T04:32:19.336Z,32.21
2017-01-26T04:33:19.316Z,32.49
2017-01-26T04:34:19.296Z,32.4
2017-01-26T04:35:19.284Z,32.49
2017-01-26T04:36:19.262Z,32.3
2017-01-26T04:37:19.256Z,32.29
2017-01-26T04:38:19.233Z,32.29
2017-01-26T04:39:19.220Z,32.4
2017-01-26T04:40:19.194Z,32.3
2017-01-26T04:41:19.175Z,32.3
2017-01-26T04:42:19.165Z,32.3
2017-01-26T04:43:19.524Z,32.4
2017-01-26T04:44:19.129Z,32.4
2017-01-26T04:45:19.103Z,32.21
2017-01-26T04:46:19.092Z,32.21
2017-01-26T04:47:19.068Z,32.12
2017-01-26T04:48:19.050Z,32.12
2017-01-26T04:49:19.037Z,32.02
2017-01-26T04:50:19.009Z,32.12
2017-01-26T04:51:19.004Z,32.12
2017-01-26T04:52:18.973Z,32.12
2017-01-26T04:53:18.962Z,32.21
2017-01-26T04:54:18.944Z,32.38
2017-01-26T04:55:18.922Z,32.4
2017-01-26T04:56:18.904Z,32.21
2017-01-26T04:57:18.890Z,32.4
2017-01-26T04:58:18.869Z,32.4
2017-01-26T04:59:18.856Z,32.3
2017-01-26T05:00:18.832Z,32.21
2017-01-26T05:01:18.813Z,32.21
2017-01-26T05:02:18.792Z,32.21
2017-01-26T05:03:18.784Z,32.21
2017-01-26T05:04:18.759Z,32.21
2017-01-26T05:05:18.747Z,32.21
2017-01-26T05:06:18.730Z,32.3
2017-01-26T05:07:18.706Z,32.02
2017-01-26T05:08:18.684Z,32.02
2017-01-26T05:09:18.662Z,32.21
2017-01-26T05:10:18.653Z,32.02
2017-01-26T05:11:18.628Z,31.93
2017-01-26T05:12:18.610Z,32.12
2017-01-26T05:13:18.599Z,32.12
2017-01-26T05:14:18.580Z,32.02
2017-01-26T05:15:18.561Z,31.93
2017-01-26T05:16:18.545Z,32.12
2017-01-26T05:17:18.526Z,32.12
2017-01-26T05:18:18.507Z,31.83
2017-01-26T05:19:18.493Z,31.72
2017-01-26T05:20:18.467Z,31.72
2017-01-26T05:21:18.458Z,31.93
2017-01-26T05:22:18.427Z,31.93
2017-01-26T05:23:18.417Z,31.93
2017-01-26T05:24:18.401Z,31.83
2017-01-26T05:25:18.376Z,31.83
2017-01-26T05:26:18.357Z,31.91
2017-01-26T05:27:18.342Z,31.63
2017-01-26T05:28:18.329Z,31.81
2017-01-26T05:29:18.303Z,31.74
2017-01-26T05:30:18.309Z,31.72
2017-01-26T05:31:18.272Z,31.63
2017-01-26T05:32:18.275Z,31.72
2017-01-26T05:33:18.234Z,31.72
2017-01-26T05:34:18.215Z,31.63
2017-01-26T05:35:18.202Z,31.81
2017-01-26T05:36:18.182Z,31.72
2017-01-26T05:37:18.161Z,31.63
2017-01-26T05:38:18.146Z,31.63
2017-01-26T05:39:18.146Z,31.63
2017-01-26T05:40:18.107Z,31.63
2017-01-26T05:41:18.085Z,31.63
2017-01-26T05:42:18.073Z,31.44
2017-01-26T05:43:18.058Z,31.63
2017-01-26T05:44:18.037Z,31.63
2017-01-26T05:45:18.033Z,31.63
2017-01-26T05:46:18.000Z,31.63
2017-01-26T05:47:17.982Z,31.53
2017-01-26T05:48:17.960Z,31.53
2017-01-26T05:49:17.940Z,31.63
2017-01-26T05:50:17.923Z,31.53
2017-01-26T05:51:17.915Z,31.53
2017-01-26T05:52:17.890Z,31.44
2017-01-26T05:53:17.873Z,31.72
2017-01-26T05:54:17.856Z,31.72
2017-01-26T05:55:17.831Z,31.53
2017-01-26T05:56:17.819Z,31.55
2017-01-26T05:57:17.795Z,31.64
2017-01-26T05:58:17.781Z,31.45
2017-01-26T05:59:17.759Z,31.64
2017-01-26T06:00:17.744Z,31.64
2017-01-26T06:01:17.736Z,31.74
2017-01-26T06:02:17.708Z,31.53
2017-01-26T06:03:17.699Z,31.63
2017-01-26T06:04:17.672Z,31.53
2017-01-26T06:05:17.658Z,31.63
2017-01-26T06:06:17.637Z,31.72
2017-01-26T06:07:17.617Z,31.81
2017-01-26T06:08:17.606Z,31.81
2017-01-26T06:09:17.580Z,31.53
2017-01-26T06:10:17.572Z,31.53
2017-01-26T06:11:17.556Z,31.72
2017-01-26T06:12:17.537Z,31.53
2017-01-26T06:13:17.512Z,31.53
2017-01-26T06:14:17.497Z,31.63
2017-01-26T06:15:17.476Z,31.63
2017-01-26T06:16:17.457Z,31.63
2017-01-26T06:17:17.442Z,31.81
2017-01-26T06:18:17.427Z,31.81
2017-01-26T06:19:17.407Z,31.81
2017-01-26T06:20:17.388Z,31.81
2017-01-26T06:21:17.366Z,32
2017-01-26T06:22:17.348Z,31.91
2017-01-26T06:23:17.327Z,32.19
2017-01-26T06:24:17.315Z,32.19
2017-01-26T06:25:17.300Z,32.29
2017-01-26T06:26:17.275Z,32.38
2017-01-26T06:27:17.264Z,32.19
2017-01-26T06:28:17.234Z,32.4
2017-01-26T06:29:17.225Z,32.19
2017-01-26T06:30:17.208Z,32.19
2017-01-26T06:31:17.192Z,32.19
2017-01-26T06:32:17.177Z,32.12
2017-01-26T06:33:17.150Z,32.12
2017-01-26T06:34:17.136Z,32.12
2017-01-26T06:35:17.117Z,32.02
2017-01-26T06:36:17.099Z,32.12
2017-01-26T06:37:17.087Z,32.21
2017-01-26T06:38:17.053Z,32.21
2017-01-26T06:39:17.044Z,32.21
2017-01-26T06:40:17.025Z,32.19
2017-01-26T06:41:17.009Z,32.21
2017-01-26T06:42:16.991Z,32.3
2017-01-26T06:43:16.972Z,32.29
2017-01-26T06:44:16.957Z,32.21
2017-01-26T06:45:16.935Z,32.19
2017-01-26T06:46:16.914Z,32.29
2017-01-26T06:47:16.897Z,32.19
2017-01-26T06:48:16.884Z,32.19
2017-01-26T06:49:16.865Z,32.29
2017-01-26T06:50:16.847Z,32.19
2017-01-26T06:51:16.821Z,32.29
2017-01-26T06:52:16.810Z,32.29
2017-01-26T06:53:16.784Z,32.29
2017-01-26T06:54:16.767Z,32.29
2017-01-26T06:55:16.750Z,32.57
2017-01-26T06:56:16.738Z,32.4
2017-01-26T06:57:16.721Z,32.49
2017-01-26T06:58:16.709Z,32.3
2017-01-26T06:59:16.686Z,32.59
2017-01-26T07:00:16.669Z,32.49
2017-01-26T07:01:16.648Z,32.68
2017-01-26T07:02:16.630Z,32.68
2017-01-26T07:03:16.612Z,32.49
2017-01-26T07:04:16.591Z,32.4
2017-01-26T07:05:16.575Z,32.4
2017-01-26T07:06:16.565Z,32.49
2017-01-26T07:07:16.537Z,32.78
2017-01-26T07:08:16.531Z,32.4
2017-01-26T07:09:16.501Z,32.4
2017-01-26T07:10:16.485Z,32.79
2017-01-26T07:11:16.467Z,32.6
2017-01-26T07:12:16.459Z,32.6
2017-01-26T07:13:16.444Z,32.6
2017-01-26T07:14:16.422Z,32.6
2017-01-26T07:15:16.409Z,32.98
2017-01-26T07:16:16.385Z,32.7
2017-01-26T07:17:16.370Z,32.89
2017-01-26T07:18:16.350Z,32.89
2017-01-26T07:19:16.334Z,32.98
2017-01-26T07:20:16.318Z,33
2017-01-26T07:21:16.310Z,32.89
2017-01-26T07:22:16.283Z,32.98
2017-01-26T07:23:16.266Z,33
2017-01-26T07:24:16.249Z,33
2017-01-26T07:25:16.239Z,33.07
2017-01-26T07:26:16.220Z,32.79
2017-01-26T07:27:16.210Z,32.79
2017-01-26T07:28:16.185Z,32.7
2017-01-26T07:29:16.170Z,32.7
2017-01-26T07:30:16.156Z,32.98
2017-01-26T07:31:16.143Z,33.26
2017-01-26T07:32:16.115Z,33.09
2017-01-26T07:33:16.103Z,33.09
2017-01-26T07:34:16.085Z,33.09
2017-01-26T07:35:16.065Z,33
2017-01-26T07:36:16.070Z,32.9
2017-01-26T07:37:16.060Z,32.81
2017-01-26T07:38:16.020Z,32.79
2017-01-26T07:39:16.006Z,33.18
2017-01-26T07:40:15.992Z,33.18
2017-01-26T07:41:15.973Z,33.18
2017-01-26T07:42:15.948Z,33.18
2017-01-26T07:43:15.941Z,33.18
2017-01-26T07:44:15.921Z,33.18
2017-01-26T07:45:15.907Z,33.18
2017-01-26T07:46:15.884Z,33.17
2017-01-26T07:47:15.869Z,33.26
2017-01-26T07:48:15.855Z,33.07
2017-01-26T07:49:16.216Z,33.07
2017-01-26T07:50:15.824Z,33.28
2017-01-26T07:51:15.809Z,33.56
2017-01-26T07:52:15.789Z,33.37
2017-01-26T07:53:15.764Z,33.18
2017-01-26T07:54:15.750Z,33.47
2017-01-26T07:55:15.739Z,33.37
2017-01-26T07:56:15.735Z,33.28
2017-01-26T07:57:15.702Z,33.18
2017-01-26T07:58:15.681Z,33.56
2017-01-26T07:59:15.663Z,33.68
2017-01-26T08:00:15.652Z,33.49
2017-01-26T08:01:15.636Z,33.68
2017-01-26T08:02:15.614Z,33.6
2017-01-26T08:03:15.607Z,34.09
2017-01-26T08:04:15.589Z,34.19
2017-01-26T08:05:15.571Z,34.19
2017-01-26T08:06:15.561Z,34.09
2017-01-26T08:07:15.535Z,34.48
2017-01-26T08:08:15.521Z,34.39
2017-01-26T08:09:15.509Z,34.12
2017-01-26T08:10:15.493Z,34.33
2017-01-26T08:11:15.482Z,34.23
2017-01-26T08:12:15.463Z,34.42
2017-01-26T08:13:15.447Z,34.12
2017-01-26T08:14:15.441Z,34.12
2017-01-26T08:15:15.422Z,34.2
2017-01-26T08:16:15.404Z,33.63
2017-01-26T08:17:15.390Z,34.11
2017-01-26T08:18:15.376Z,34.12
2017-01-26T08:19:15.368Z,33.75
2017-01-26T08:20:15.359Z,33.84
2017-01-26T08:21:15.338Z,34.03
2017-01-26T08:22:15.322Z,34.03
2017-01-26T08:23:15.311Z,34.12
2017-01-26T08:24:15.302Z,34.33
2017-01-26T08:25:15.284Z,34.33
2017-01-26T08:26:15.269Z,34.23
2017-01-26T08:27:15.260Z,34.14
2017-01-26T08:28:15.243Z,34.14
2017-01-26T08:29:15.230Z,34.23
2017-01-26T08:30:15.215Z,34.23
2017-01-26T08:31:15.213Z,34.16
2017-01-26T08:32:15.199Z,34.34
2017-01-26T08:33:15.179Z,34.25
2017-01-26T08:34:15.169Z,34.54
2017-01-26T08:35:15.182Z,34.55
2017-01-26T08:36:15.142Z,34.55
2017-01-26T08:37:15.131Z,34.65
2017-01-26T08:38:15.125Z,34.36
2017-01-26T08:39:15.111Z,34.38
2017-01-26T08:40:15.093Z,34.27
2017-01-26T08:41:15.084Z,34.36
2017-01-26T08:42:15.081Z,34.17
2017-01-26T08:43:15.053Z,33.98
2017-01-26T08:44:15.047Z,33.97
2017-01-26T08:45:15.040Z,33.97
2017-01-26T08:46:15.023Z,33.8
2017-01-26T08:47:15.017Z,33.8
2017-01-26T08:48:15.002Z,33.61
2017-01-26T08:49:14.997Z,33.4
2017-01-26T08:50:14.983Z,33.17
2017-01-26T08:51:14.972Z,33.44
2017-01-26T08:52:14.955Z,33.06
2017-01-26T08:53:14.939Z,33.04
2017-01-26T08:54:14.925Z,33.52
2017-01-26T08:55:14.924Z,33.73
2017-01-26T08:56:14.911Z,33.65
2017-01-26T08:57:14.895Z,33.75
2017-01-26T08:58:14.878Z,33.17
2017-01-26T08:59:14.875Z,32.67
2017-01-26T09:00:14.853Z,32.75
2017-01-26T09:01:14.870Z,33.31
2017-01-26T09:02:14.835Z,33.6
2017-01-26T09:03:14.817Z,33.73
2017-01-26T09:04:14.804Z,33.63
2017-01-26T09:05:14.794Z,33.63
2017-01-26T09:06:14.795Z,33.44
2017-01-26T09:07:14.782Z,33.33
2017-01-26T09:08:14.757Z,33.73
2017-01-26T09:09:14.735Z,33.82
2017-01-26T09:10:14.731Z,33.73
2017-01-26T09:11:14.718Z,33.92
2017-01-26T09:12:14.702Z,33.65
2017-01-26T09:13:14.685Z,33.44
2017-01-26T09:14:14.674Z,33.54
2017-01-26T09:15:14.661Z,33.73
2017-01-26T09:16:14.645Z,33.44
2017-01-26T09:17:14.632Z,33.62
2017-01-26T09:18:14.619Z,33.44
2017-01-26T09:19:14.607Z,33.23
2017-01-26T09:20:14.594Z,33.23
2017-01-26T09:21:14.573Z,33.31
2017-01-26T09:22:14.569Z,33.12
2017-01-26T09:23:14.555Z,33.22
2017-01-26T09:24:14.535Z,33.69
2017-01-26T09:25:14.547Z,33.81
2017-01-26T09:26:14.508Z,33.9
2017-01-26T09:27:14.489Z,33.71
2017-01-26T09:28:14.475Z,33.54
2017-01-26T09:29:14.462Z,33.92
2017-01-26T09:30:14.452Z,33.82
2017-01-26T09:31:14.439Z,33.82
2017-01-26T09:32:14.414Z,34.19
2017-01-26T09:33:14.404Z,34.2
2017-01-26T09:34:14.392Z,34.19
2017-01-26T09:35:14.383Z,34.39
2017-01-26T09:36:14.572Z,34.58
2017-01-26T09:37:14.556Z,34.59
2017-01-26T09:38:14.329Z,34.59
2017-01-26T09:39:14.320Z,34.69
2017-01-26T09:40:14.304Z,34.5
2017-01-26T09:41:14.290Z,34.3
2017-01-26T09:42:14.280Z,34.59
2017-01-26T09:43:14.269Z,34.59
2017-01-26T09:44:14.247Z,34.52
2017-01-26T09:45:14.234Z,34.8
2017-01-26T09:46:14.225Z,34.52
2017-01-26T09:47:14.216Z,34.42
2017-01-26T09:48:14.193Z,34.61
2017-01-26T09:49:14.187Z,34.71
2017-01-26T09:50:14.176Z,34.33
2017-01-26T09:51:14.161Z,34.59
2017-01-26T09:52:14.151Z,34.42
2017-01-26T09:53:14.137Z,34.61
2017-01-26T09:54:14.120Z,34.61
2017-01-26T09:55:14.104Z,34.54
2017-01-26T09:56:14.097Z,34.92
2017-01-26T09:57:14.077Z,35.01
2017-01-26T09:58:14.075Z,34.55
2017-01-26T09:59:14.056Z,34.34
2017-01-26T10:00:14.048Z,34.41
2017-01-26T10:01:14.041Z,34.12
2017-01-26T10:02:14.024Z,33.73
2017-01-26T10:03:14.009Z,34.01
2017-01-26T10:04:13.992Z,33.52
2017-01-26T10:05:13.985Z,33.5
2017-01-26T10:06:13.979Z,34.07
2017-01-26T10:07:14.163Z,34.11
2017-01-26T10:08:14.146Z,33.81
2017-01-26T10:09:13.936Z,33.9
2017-01-26T10:10:13.931Z,34.19
2017-01-26T10:11:13.918Z,34.48
2017-01-26T10:12:13.896Z,34.12
2017-01-26T10:13:13.881Z,34.14
2017-01-26T10:14:13.867Z,34.71
2017-01-26T10:15:13.862Z,34.71
2017-01-26T10:16:13.843Z,34.52
2017-01-26T10:17:13.829Z,35.01
2017-01-26T10:18:13.826Z,35.01
2017-01-26T10:19:13.801Z,35.22
2017-01-26T10:20:13.790Z,35.13
2017-01-26T10:21:13.784Z,35.31
2017-01-26T10:22:13.769Z,35.14
2017-01-26T10:23:13.773Z,35.16
2017-01-26T10:24:13.750Z,34.67
2017-01-26T10:25:13.735Z,34.54
2017-01-26T10:26:13.722Z,34.44
2017-01-26T10:27:13.716Z,34.84
2017-01-26T10:28:13.705Z,35.05
2017-01-26T10:29:13.694Z,35.33
2017-01-26T10:30:14.063Z,35.16
2017-01-26T10:31:13.670Z,35.35
2017-01-26T10:32:13.651Z,35.06
2017-01-26T10:33:13.645Z,35.24
2017-01-26T10:34:13.640Z,35.25
2017-01-26T10:35:13.627Z,35.16
2017-01-26T10:36:13.612Z,35.27
2017-01-26T10:37:13.602Z,35.46
2017-01-26T10:38:13.593Z,35.48
2017-01-26T10:39:13.784Z,35.6
2017-01-26T10:40:13.566Z,35.19
2017-01-26T10:41:13.557Z,34.48
2017-01-26T10:42:13.557Z,34.23
2017-01-26T10:43:13.537Z,34.42
2017-01-26T10:44:13.528Z,34.61
2017-01-26T10:45:13.527Z,34.73
2017-01-26T10:46:13.510Z,34.94
2017-01-26T10:47:13.500Z,34.95
2017-01-26T10:48:13.488Z,34.67
2017-01-26T10:49:13.484Z,34.65
2017-01-26T10:50:13.473Z,34.36
2017-01-26T10:51:13.452Z,34.23
2017-01-26T10:52:13.453Z,34.94
2017-01-26T10:53:13.452Z,34.95
2017-01-26T10:54:13.429Z,34.76
2017-01-26T10:55:13.421Z,34.95
2017-01-26T10:56:13.416Z,35.16
2017-01-26T10:57:13.399Z,35.27
2017-01-26T10:58:13.391Z,35.48
2017-01-26T10:59:13.385Z,35.29
2017-01-26T11:00:13.374Z,35.19
2017-01-26T11:01:13.358Z,34.72
2017-01-26T11:02:13.355Z,34.5
2017-01-26T11:03:13.336Z,34
2017-01-26T11:04:13.336Z,33.86
2017-01-26T11:05:13.321Z,33.37
2017-01-26T11:06:13.313Z,33.25
2017-01-26T11:07:13.300Z,33.06
2017-01-26T11:08:13.290Z,32.95
2017-01-26T11:09:13.281Z,32.95
2017-01-26T11:10:13.273Z,32.67
2017-01-26T11:11:13.456Z,32.56
2017-01-26T11:12:13.240Z,32.39
2017-01-26T11:13:13.226Z,32.57
2017-01-26T11:14:13.214Z,32.86
2017-01-26T11:15:13.212Z,32.78
2017-01-26T11:16:13.201Z,32.6
2017-01-26T11:17:13.178Z,32.31
2017-01-26T11:18:13.177Z,32.78
2017-01-26T11:19:13.164Z,32.51
2017-01-26T11:20:13.152Z,32.6
2017-01-26T11:21:13.139Z,32.42
2017-01-26T11:22:13.119Z,32.89
2017-01-26T11:23:13.111Z,32.91
2017-01-26T11:24:13.093Z,32.81
2017-01-26T11:25:13.086Z,32.6
2017-01-26T11:26:13.079Z,32.51
2017-01-26T11:27:13.057Z,32.89
2017-01-26T11:28:13.056Z,33
2017-01-26T11:29:13.042Z,32.92
2017-01-26T11:30:13.027Z,33.4
2017-01-26T11:31:13.013Z,33.42
2017-01-26T11:32:13.001Z,33.62
2017-01-26T11:33:12.992Z,33.73
2017-01-26T11:34:12.975Z,33.84
2017-01-26T11:35:12.977Z,34.03
2017-01-26T11:36:12.962Z,33.84
2017-01-26T11:37:12.943Z,33.65
2017-01-26T11:38:48.381Z,33.73
2017-01-26T11:39:25.522Z,33.75
2017-01-26T11:40:25.504Z,33.67
2017-01-26T11:41:25.495Z,34.15
2017-01-26T11:42:25.485Z,34.07
2017-01-26T11:43:25.482Z,33.78
2017-01-26T11:44:25.471Z,33.67
2017-01-26T11:45:25.483Z,33.47
2017-01-26T11:46:25.451Z,33.17
2017-01-26T11:47:25.439Z,33.24
2017-01-26T11:48:25.431Z,33.15
2017-01-26T11:49:25.414Z,32.57
2017-01-26T11:50:25.419Z,32.83
2017-01-26T11:51:25.402Z,33.04
2017-01-26T11:52:25.397Z,32.94
2017-01-26T11:53:25.376Z,33.24
2017-01-26T11:54:25.376Z,33.26
2017-01-26T11:55:25.371Z,33.45
2017-01-26T11:56:25.353Z,33.65
2017-01-26T11:57:25.340Z,33.75
2017-01-26T11:58:25.328Z,33.86
2017-01-26T11:59:25.326Z,33.88
2017-01-26T12:00:25.308Z,33.9
2017-01-26T12:01:25.303Z,33.7
2017-01-26T12:02:25.293Z,33.72
2017-01-26T12:03:25.283Z,33.82
2017-01-26T12:04:25.278Z,33.84
2017-01-26T12:05:25.268Z,33.82
2017-01-26T12:06:25.254Z,33.82
2017-01-26T12:07:25.254Z,34.11
2017-01-26T12:08:25.239Z,34.22
2017-01-26T12:09:25.225Z,34.22
2017-01-26T12:10:25.226Z,34.05
2017-01-26T12:11:29.451Z,34.12
2017-01-26T12:12:25.204Z,34.11
2017-01-26T12:13:25.189Z,34.01
2017-01-26T12:14:25.181Z,33.8
2017-01-26T12:15:25.170Z,33.88
2017-01-26T12:16:25.176Z,34.07
2017-01-26T12:17:25.153Z,34.05
2017-01-26T12:18:25.146Z,34.05
2017-01-26T12:19:25.135Z,33.67
2017-01-26T12:20:25.129Z,33.39
2017-01-26T12:21:25.119Z,33.56
2017-01-26T12:22:25.113Z,33.65
2017-01-26T12:23:25.104Z,33.26
2017-01-26T12:24:25.099Z,33.17
2017-01-26T12:25:25.078Z,32.96
2017-01-26T12:26:25.072Z,33.15
2017-01-26T12:27:25.065Z,33.05
2017-01-26T12:28:25.060Z,32.96
2017-01-26T12:29:25.048Z,33.15
2017-01-26T12:30:25.041Z,33.34
2017-01-26T12:31:25.025Z,33.47
2017-01-26T12:32:25.018Z,33.65
2017-01-26T12:33:25.010Z,33.77
2017-01-26T12:34:25.004Z,33.48
2017-01-26T12:35:25.005Z,32.62
2017-01-26T12:36:24.975Z,32.56
2017-01-26T12:37:24.973Z,32.26
2017-01-26T12:38:24.957Z,32.34
2017-01-26T12:39:24.955Z,32.15
2017-01-26T12:40:24.945Z,32.04
2017-01-26T12:41:24.931Z,32.23
2017-01-26T12:42:24.927Z,32.43
2017-01-26T12:43:24.905Z,32.46
2017-01-26T12:44:24.902Z,32.57
2017-01-26T12:45:24.890Z,33.05
2017-01-26T12:46:24.887Z,32.96
2017-01-26T12:47:24.865Z,33.26
2017-01-26T12:48:24.856Z,33.47
2017-01-26T12:49:24.851Z,33.39
2017-01-26T12:50:24.837Z,33.48
2017-01-26T12:51:24.831Z,33.39
2017-01-26T12:52:24.825Z,33.69
2017-01-26T12:53:24.814Z,33.59
2017-01-26T12:54:24.799Z,33.22
2017-01-26T12:55:24.793Z,33.18
2017-01-26T12:56:24.787Z,33.26